sensor_id;sensor_type;location;lat;lon;timestamp;temperature;humidity
17452;DHT22;8843;48.838;9.324;2022-12-18T00:02:12;2.70;69.30
17452;DHT22;8843;48.838;9.324;2022-12-18T00:04:39;2.70;69.20
17452;DHT22;8843;48.838;9.324;2022-12-18T00:07:08;2.70;69.20
17452;DHT22;8843;48.838;9.324;2022-12-18T00:09:35;2.70;69.20
17452;DHT22;8843;48.838;9.324;2022-12-18T00:12:02;2.70;69.20
17452;DHT22;8843;48.838;9.324;2022-12-18T00:14:28;2.70;69.20
17452;DHT22;8843;48.838;9.324;2022-12-18T00:16:55;2.70;69.20
17452;DHT22;8843;48.838;9.324;2022-12-18T00:19:23;2.70;69.10
17452;DHT22;8843;48.838;9.324;2022-12-18T00:21:50;2.70;69.00
17452;DHT22;8843;48.838;9.324;2022-12-18T00:24:18;2.70;68.90
17452;DHT22;8843;48.838;9.324;2022-12-18T00:26:45;2.70;68.80
17452;DHT22;8843;48.838;9.324;2022-12-18T00:29:13;2.70;68.70
17452;DHT22;8843;48.838;9.324;2022-12-18T00:31:41;2.70;68.80
17452;DHT22;8843;48.838;9.324;2022-12-18T00:34:09;2.70;68.80
17452;DHT22;8843;48.838;9.324;2022-12-18T00:36:36;2.70;68.90
17452;DHT22;8843;48.838;9.324;2022-12-18T00:39:04;2.70;68.80
17452;DHT22;8843;48.838;9.324;2022-12-18T00:41:33;2.70;68.80
17452;DHT22;8843;48.838;9.324;2022-12-18T00:44:18;2.70;68.70
17452;DHT22;8843;48.838;9.324;2022-12-18T00:46:46;2.70;68.70
17452;DHT22;8843;48.838;9.324;2022-12-18T00:49:13;2.70;68.60
17452;DHT22;8843;48.838;9.324;2022-12-18T00:51:40;2.70;68.60
17452;DHT22;8843;48.838;9.324;2022-12-18T00:54:07;2.70;68.50
17452;DHT22;8843;48.838;9.324;2022-12-18T00:56:36;2.70;68.40
17452;DHT22;8843;48.838;9.324;2022-12-18T00:59:04;2.60;68.40
17452;DHT22;8843;48.838;9.324;2022-12-18T01:01:31;2.60;68.30
17452;DHT22;8843;48.838;9.324;2022-12-18T01:03:59;2.70;68.30
17452;DHT22;8843;48.838;9.324;2022-12-18T01:06:26;2.60;68.10
17452;DHT22;8843;48.838;9.324;2022-12-18T01:08:52;2.60;68.20
17452;DHT22;8843;48.838;9.324;2022-12-18T01:11:20;2.60;68.10
17452;DHT22;8843;48.838;9.324;2022-12-18T01:13:49;2.60;68.10
17452;DHT22;8843;48.838;9.324;2022-12-18T01:16:17;2.60;68.10
17452;DHT22;8843;48.838;9.324;2022-12-18T01:18:44;2.60;67.90
17452;DHT22;8843;48.838;9.324;2022-12-18T01:21:14;2.60;68.70
17452;DHT22;8843;48.838;9.324;2022-12-18T01:23:41;2.60;67.90
17452;DHT22;8843;48.838;9.324;2022-12-18T01:26:13;2.60;67.90
17452;DHT22;8843;48.838;9.324;2022-12-18T01:28:41;2.60;67.90
17452;DHT22;8843;48.838;9.324;2022-12-18T01:31:12;2.60;67.90
17452;DHT22;8843;48.838;9.324;2022-12-18T01:33:39;2.60;67.90
17452;DHT22;8843;48.838;9.324;2022-12-18T01:36:07;2.60;67.70
17452;DHT22;8843;48.838;9.324;2022-12-18T01:38:34;2.60;67.70
17452;DHT22;8843;48.838;9.324;2022-12-18T01:41:02;2.60;67.80
17452;DHT22;8843;48.838;9.324;2022-12-18T01:43:50;2.60;67.70
17452;DHT22;8843;48.838;9.324;2022-12-18T01:46:20;2.60;67.60
17452;DHT22;8843;48.838;9.324;2022-12-18T01:48:50;2.60;67.70
17452;DHT22;8843;48.838;9.324;2022-12-18T01:51:17;2.60;67.60
17452;DHT22;8843;48.838;9.324;2022-12-18T01:53:45;2.60;67.60
17452;DHT22;8843;48.838;9.324;2022-12-18T01:56:14;2.60;67.50
17452;DHT22;8843;48.838;9.324;2022-12-18T01:58:48;2.60;67.50
17452;DHT22;8843;48.838;9.324;2022-12-18T02:01:20;2.60;67.50
17452;DHT22;8843;48.838;9.324;2022-12-18T02:03:48;2.60;68.20
17452;DHT22;8843;48.838;9.324;2022-12-18T02:06:16;2.60;67.30
17452;DHT22;8843;48.838;9.324;2022-12-18T02:08:51;2.60;67.40
17452;DHT22;8843;48.838;9.324;2022-12-18T02:11:28;2.60;67.40
17452;DHT22;8843;48.838;9.324;2022-12-18T02:14:02;2.60;67.30
17452;DHT22;8843;48.838;9.324;2022-12-18T02:16:39;2.50;67.20
17452;DHT22;8843;48.838;9.324;2022-12-18T02:19:14;2.60;67.20
17452;DHT22;8843;48.838;9.324;2022-12-18T02:21:51;2.50;67.30
17452;DHT22;8843;48.838;9.324;2022-12-18T02:24:28;2.50;67.30
17452;DHT22;8843;48.838;9.324;2022-12-18T02:27:00;2.60;67.30
17452;DHT22;8843;48.838;9.324;2022-12-18T02:29:31;2.50;67.10
17452;DHT22;8843;48.838;9.324;2022-12-18T02:32:00;2.50;67.10
17452;DHT22;8843;48.838;9.324;2022-12-18T02:34:29;2.50;67.10
17452;DHT22;8843;48.838;9.324;2022-12-18T02:36:58;2.60;67.10
17452;DHT22;8843;48.838;9.324;2022-12-18T02:39:29;2.50;67.00
17452;DHT22;8843;48.838;9.324;2022-12-18T02:41:58;2.50;67.10
17452;DHT22;8843;48.838;9.324;2022-12-18T02:44:28;2.50;67.00
17452;DHT22;8843;48.838;9.324;2022-12-18T02:46:54;2.50;67.00
17452;DHT22;8843;48.838;9.324;2022-12-18T02:49:29;2.50;67.80
17452;DHT22;8843;48.838;9.324;2022-12-18T02:52:04;2.50;66.90
17452;DHT22;8843;48.838;9.324;2022-12-18T02:54:51;2.50;66.90
17452;DHT22;8843;48.838;9.324;2022-12-18T02:57:27;2.50;66.90
17452;DHT22;8843;48.838;9.324;2022-12-18T03:00:00;2.50;66.90
17452;DHT22;8843;48.838;9.324;2022-12-18T03:02:35;2.50;66.90
17452;DHT22;8843;48.838;9.324;2022-12-18T03:05:09;2.50;66.80
17452;DHT22;8843;48.838;9.324;2022-12-18T03:07:39;2.50;66.80
17452;DHT22;8843;48.838;9.324;2022-12-18T03:10:11;2.50;66.90
17452;DHT22;8843;48.838;9.324;2022-12-18T03:12:46;2.50;66.90
17452;DHT22;8843;48.838;9.324;2022-12-18T03:15:18;2.50;66.90
17452;DHT22;8843;48.838;9.324;2022-12-18T03:17:51;2.50;66.90
17452;DHT22;8843;48.838;9.324;2022-12-18T03:20:20;2.50;66.80
17452;DHT22;8843;48.838;9.324;2022-12-18T03:22:51;2.50;66.70
17452;DHT22;8843;48.838;9.324;2022-12-18T03:25:20;2.50;66.70
17452;DHT22;8843;48.838;9.324;2022-12-18T03:27:52;2.50;66.80
17452;DHT22;8843;48.838;9.324;2022-12-18T03:30:20;2.50;66.90
17452;DHT22;8843;48.838;9.324;2022-12-18T03:32:50;2.50;66.80
17452;DHT22;8843;48.838;9.324;2022-12-18T03:38:04;2.50;66.60
17452;DHT22;8843;48.838;9.324;2022-12-18T03:40:37;2.50;66.70
17452;DHT22;8843;48.838;9.324;2022-12-18T03:43:10;2.50;66.80
17452;DHT22;8843;48.838;9.324;2022-12-18T03:45:42;2.50;66.80
17452;DHT22;8843;48.838;9.324;2022-12-18T03:48:17;2.40;66.70
17452;DHT22;8843;48.838;9.324;2022-12-18T03:50:49;2.50;66.80
17452;DHT22;8843;48.838;9.324;2022-12-18T03:53:27;2.50;66.80
17452;DHT22;8843;48.838;9.324;2022-12-18T03:55:56;2.50;66.80
17452;DHT22;8843;48.838;9.324;2022-12-18T03:58:26;2.40;66.70
17452;DHT22;8843;48.838;9.324;2022-12-18T04:00:56;2.40;66.70
17452;DHT22;8843;48.838;9.324;2022-12-18T04:03:24;2.40;66.70
17452;DHT22;8843;48.838;9.324;2022-12-18T04:05:53;2.50;66.70
17452;DHT22;8843;48.838;9.324;2022-12-18T04:08:21;2.40;66.60
17452;DHT22;8843;48.838;9.324;2022-12-18T04:10:49;2.40;66.70
17452;DHT22;8843;48.838;9.324;2022-12-18T04:13:22;2.40;66.70
17452;DHT22;8843;48.838;9.324;2022-12-18T04:15:50;2.50;66.60
17452;DHT22;8843;48.838;9.324;2022-12-18T04:18:18;2.40;66.60
17452;DHT22;8843;48.838;9.324;2022-12-18T04:20:45;2.40;66.50
17452;DHT22;8843;48.838;9.324;2022-12-18T04:23:12;2.50;66.60
17452;DHT22;8843;48.838;9.324;2022-12-18T04:25:39;2.40;67.20
17452;DHT22;8843;48.838;9.324;2022-12-18T04:28:06;2.40;67.10
17452;DHT22;8843;48.838;9.324;2022-12-18T04:30:33;2.40;67.10
17452;DHT22;8843;48.838;9.324;2022-12-18T04:33:01;2.40;66.40
17452;DHT22;8843;48.838;9.324;2022-12-18T04:35:28;2.40;66.40
17452;DHT22;8843;48.838;9.324;2022-12-18T04:37:55;2.50;66.50
17452;DHT22;8843;48.838;9.324;2022-12-18T04:40:22;2.50;66.40
17452;DHT22;8843;48.838;9.324;2022-12-18T04:42:49;2.40;66.30
17452;DHT22;8843;48.838;9.324;2022-12-18T04:45:15;2.50;66.30
17452;DHT22;8843;48.838;9.324;2022-12-18T04:47:42;2.40;66.30
17452;DHT22;8843;48.838;9.324;2022-12-18T04:50:11;2.40;66.30
17452;DHT22;8843;48.838;9.324;2022-12-18T04:52:38;2.40;66.30
17452;DHT22;8843;48.838;9.324;2022-12-18T04:55:05;2.40;66.30
17452;DHT22;8843;48.838;9.324;2022-12-18T04:57:32;2.40;66.20
17452;DHT22;8843;48.838;9.324;2022-12-18T04:59:59;2.40;66.30
17452;DHT22;8843;48.838;9.324;2022-12-18T05:02:26;2.40;66.30
17452;DHT22;8843;48.838;9.324;2022-12-18T05:04:52;2.40;66.20
17452;DHT22;8843;48.838;9.324;2022-12-18T05:07:21;2.40;66.20
17452;DHT22;8843;48.838;9.324;2022-12-18T05:09:48;2.40;66.10
17452;DHT22;8843;48.838;9.324;2022-12-18T05:12:14;2.40;66.30
17452;DHT22;8843;48.838;9.324;2022-12-18T05:14:41;2.40;66.20
17452;DHT22;8843;48.838;9.324;2022-12-18T05:17:08;2.30;66.10
17452;DHT22;8843;48.838;9.324;2022-12-18T05:19:35;2.40;66.80
17452;DHT22;8843;48.838;9.324;2022-12-18T05:22:02;2.40;66.00
17452;DHT22;8843;48.838;9.324;2022-12-18T05:24:30;2.40;65.90
17452;DHT22;8843;48.838;9.324;2022-12-18T05:26:57;2.40;65.90
17452;DHT22;8843;48.838;9.324;2022-12-18T05:29:24;2.30;66.70
17452;DHT22;8843;48.838;9.324;2022-12-18T05:31:51;2.30;65.90
17452;DHT22;8843;48.838;9.324;2022-12-18T05:34:18;2.30;65.80
17452;DHT22;8843;48.838;9.324;2022-12-18T05:36:45;2.40;66.50
17452;DHT22;8843;48.838;9.324;2022-12-18T05:39:11;2.30;66.60
17452;DHT22;8843;48.838;9.324;2022-12-18T05:41:40;2.30;65.80
17452;DHT22;8843;48.838;9.324;2022-12-18T05:44:07;2.30;65.80
17452;DHT22;8843;48.838;9.324;2022-12-18T05:46:34;2.30;65.80
17452;DHT22;8843;48.838;9.324;2022-12-18T05:49:02;2.30;65.90
17452;DHT22;8843;48.838;9.324;2022-12-18T05:51:28;2.30;65.80
17452;DHT22;8843;48.838;9.324;2022-12-18T05:53:55;2.30;65.80
17452;DHT22;8843;48.838;9.324;2022-12-18T05:56:22;2.30;65.70
17452;DHT22;8843;48.838;9.324;2022-12-18T05:58:53;2.30;65.70
17452;DHT22;8843;48.838;9.324;2022-12-18T06:01:22;2.30;65.70
17452;DHT22;8843;48.838;9.324;2022-12-18T06:03:49;2.30;65.70
17452;DHT22;8843;48.838;9.324;2022-12-18T06:06:18;2.30;65.70
17452;DHT22;8843;48.838;9.324;2022-12-18T06:08:45;2.30;65.70
17452;DHT22;8843;48.838;9.324;2022-12-18T06:11:13;2.30;65.70
17452;DHT22;8843;48.838;9.324;2022-12-18T06:13:39;2.30;65.70
17452;DHT22;8843;48.838;9.324;2022-12-18T06:16:08;2.30;65.70
17452;DHT22;8843;48.838;9.324;2022-12-18T06:18:35;2.30;66.50
17452;DHT22;8843;48.838;9.324;2022-12-18T06:21:03;2.30;65.70
17452;DHT22;8843;48.838;9.324;2022-12-18T06:23:30;2.30;65.80
17452;DHT22;8843;48.838;9.324;2022-12-18T06:25:57;2.30;65.90
17452;DHT22;8843;48.838;9.324;2022-12-18T06:28:24;2.30;65.70
17452;DHT22;8843;48.838;9.324;2022-12-18T06:30:51;2.30;65.90
17452;DHT22;8843;48.838;9.324;2022-12-18T06:33:19;2.30;66.50
17452;DHT22;8843;48.838;9.324;2022-12-18T06:35:46;2.30;65.70
17452;DHT22;8843;48.838;9.324;2022-12-18T06:38:13;2.30;65.80
17452;DHT22;8843;48.838;9.324;2022-12-18T06:40:40;2.30;65.70
17452;DHT22;8843;48.838;9.324;2022-12-18T06:43:07;2.30;65.80
17452;DHT22;8843;48.838;9.324;2022-12-18T06:45:34;2.30;65.70
17452;DHT22;8843;48.838;9.324;2022-12-18T06:48:01;2.30;65.70
17452;DHT22;8843;48.838;9.324;2022-12-18T06:50:29;2.30;65.80
17452;DHT22;8843;48.838;9.324;2022-12-18T06:52:56;2.30;65.70
17452;DHT22;8843;48.838;9.324;2022-12-18T06:55:23;2.30;65.70
17452;DHT22;8843;48.838;9.324;2022-12-18T06:57:50;2.30;65.70
17452;DHT22;8843;48.838;9.324;2022-12-18T07:00:17;2.30;65.70
17452;DHT22;8843;48.838;9.324;2022-12-18T07:02:44;2.30;65.70
17452;DHT22;8843;48.838;9.324;2022-12-18T07:05:11;2.30;65.70
17452;DHT22;8843;48.838;9.324;2022-12-18T07:07:39;2.30;65.60
17452;DHT22;8843;48.838;9.324;2022-12-18T07:10:06;2.30;65.60
17452;DHT22;8843;48.838;9.324;2022-12-18T07:12:33;2.30;65.70
17452;DHT22;8843;48.838;9.324;2022-12-18T07:15:00;2.20;65.50
17452;DHT22;8843;48.838;9.324;2022-12-18T07:17:27;2.30;65.50
17452;DHT22;8843;48.838;9.324;2022-12-18T07:19:53;2.30;65.50
17452;DHT22;8843;48.838;9.324;2022-12-18T07:22:20;2.30;65.50
17452;DHT22;8843;48.838;9.324;2022-12-18T07:24:48;2.30;65.50
17452;DHT22;8843;48.838;9.324;2022-12-18T07:27:15;2.20;65.40
17452;DHT22;8843;48.838;9.324;2022-12-18T07:29:42;2.30;74.80
17452;DHT22;8843;48.838;9.324;2022-12-18T07:32:09;2.70;69.80
17452;DHT22;8843;48.838;9.324;2022-12-18T07:34:36;2.50;66.10
17452;DHT22;8843;48.838;9.324;2022-12-18T07:37:03;2.50;65.80
17452;DHT22;8843;48.838;9.324;2022-12-18T07:39:30;2.40;66.30
17452;DHT22;8843;48.838;9.324;2022-12-18T07:41:58;2.30;66.00
17452;DHT22;8843;48.838;9.324;2022-12-18T07:44:42;2.30;66.10
17452;DHT22;8843;48.838;9.324;2022-12-18T07:47:09;2.20;66.00
17452;DHT22;8843;48.838;9.324;2022-12-18T07:49:36;2.20;65.80
17452;DHT22;8843;48.838;9.324;2022-12-18T07:52:03;2.20;65.90
17452;DHT22;8843;48.838;9.324;2022-12-18T07:54:30;2.20;65.70
17452;DHT22;8843;48.838;9.324;2022-12-18T07:56:58;2.20;65.70
17452;DHT22;8843;48.838;9.324;2022-12-18T07:59:26;2.20;65.70
17452;DHT22;8843;48.838;9.324;2022-12-18T08:01:52;1.90;77.30
17452;DHT22;8843;48.838;9.324;2022-12-18T08:04:19;2.50;72.40
17452;DHT22;8843;48.838;9.324;2022-12-18T08:06:46;2.40;67.40
17452;DHT22;8843;48.838;9.324;2022-12-18T08:09:13;2.40;66.70
17452;DHT22;8843;48.838;9.324;2022-12-18T08:11:40;2.30;67.10
17452;DHT22;8843;48.838;9.324;2022-12-18T08:14:08;2.30;66.90
17452;DHT22;8843;48.838;9.324;2022-12-18T08:16:35;2.30;66.80
17452;DHT22;8843;48.838;9.324;2022-12-18T08:19:02;2.30;66.70
17452;DHT22;8843;48.838;9.324;2022-12-18T08:21:30;2.20;66.50
17452;DHT22;8843;48.838;9.324;2022-12-18T08:23:59;2.20;66.30
17452;DHT22;8843;48.838;9.324;2022-12-18T08:26:28;2.70;78.50
17452;DHT22;8843;48.838;9.324;2022-12-18T08:28:56;2.70;70.40
17452;DHT22;8843;48.838;9.324;2022-12-18T08:31:25;2.50;66.90
17452;DHT22;8843;48.838;9.324;2022-12-18T08:33:53;2.40;67.80
17452;DHT22;8843;48.838;9.324;2022-12-18T08:36:21;2.30;67.80
17452;DHT22;8843;48.838;9.324;2022-12-18T08:38:48;2.30;67.70
17452;DHT22;8843;48.838;9.324;2022-12-18T08:41:16;2.70;80.20
17452;DHT22;8843;48.838;9.324;2022-12-18T08:43:43;2.70;71.10
17452;DHT22;8843;48.838;9.324;2022-12-18T08:46:33;2.50;68.10
17452;DHT22;8843;48.838;9.324;2022-12-18T08:49:00;2.40;68.40
17452;DHT22;8843;48.838;9.324;2022-12-18T08:51:27;2.40;68.50
17452;DHT22;8843;48.838;9.324;2022-12-18T08:53:54;2.30;68.30
17452;DHT22;8843;48.838;9.324;2022-12-18T08:56:21;2.30;68.20
17452;DHT22;8843;48.838;9.324;2022-12-18T08:58:51;2.30;68.20
17452;DHT22;8843;48.838;9.324;2022-12-18T09:01:18;2.30;68.10
17452;DHT22;8843;48.838;9.324;2022-12-18T09:03:46;2.30;68.10
17452;DHT22;8843;48.838;9.324;2022-12-18T09:06:14;2.30;68.00
17452;DHT22;8843;48.838;9.324;2022-12-18T09:08:42;2.20;68.00
17452;DHT22;8843;48.838;9.324;2022-12-18T09:11:12;2.20;68.00
17452;DHT22;8843;48.838;9.324;2022-12-18T09:13:40;2.30;68.00
17452;DHT22;8843;48.838;9.324;2022-12-18T09:16:07;2.20;67.90
17452;DHT22;8843;48.838;9.324;2022-12-18T09:18:34;2.20;68.00
17452;DHT22;8843;48.838;9.324;2022-12-18T09:21:09;2.30;68.80
17452;DHT22;8843;48.838;9.324;2022-12-18T09:23:36;2.30;68.10
17452;DHT22;8843;48.838;9.324;2022-12-18T09:26:03;2.20;68.10
17452;DHT22;8843;48.838;9.324;2022-12-18T09:28:30;2.30;68.20
17452;DHT22;8843;48.838;9.324;2022-12-18T09:30:57;2.20;68.10
17452;DHT22;8843;48.838;9.324;2022-12-18T09:33:24;2.20;68.30
17452;DHT22;8843;48.838;9.324;2022-12-18T09:35:50;2.20;68.30
17452;DHT22;8843;48.838;9.324;2022-12-18T09:38:20;2.20;68.40
17452;DHT22;8843;48.838;9.324;2022-12-18T09:40:49;2.30;68.40
17452;DHT22;8843;48.838;9.324;2022-12-18T09:43:19;2.20;68.30
17452;DHT22;8843;48.838;9.324;2022-12-18T09:45:49;1.70;63.80
17452;DHT22;8843;48.838;9.324;2022-12-18T09:48:23;1.30;65.30
17452;DHT22;8843;48.838;9.324;2022-12-18T09:50:59;3.90;74.30
17452;DHT22;8843;48.838;9.324;2022-12-18T09:53:34;3.30;71.20
17452;DHT22;8843;48.838;9.324;2022-12-18T09:56:04;2.80;69.30
17452;DHT22;8843;48.838;9.324;2022-12-18T09:58:36;2.60;69.10
17452;DHT22;8843;48.838;9.324;2022-12-18T10:01:10;2.40;68.50
17452;DHT22;8843;48.838;9.324;2022-12-18T10:03:36;2.40;69.20
17452;DHT22;8843;48.838;9.324;2022-12-18T10:06:06;2.40;69.30
17452;DHT22;8843;48.838;9.324;2022-12-18T10:08:43;2.30;69.50
17452;DHT22;8843;48.838;9.324;2022-12-18T10:11:33;2.30;69.60
17452;DHT22;8843;48.838;9.324;2022-12-18T10:14:07;2.30;70.40
17452;DHT22;8843;48.838;9.324;2022-12-18T10:16:40;2.30;69.80
17452;DHT22;8843;48.838;9.324;2022-12-18T10:19:23;2.30;70.60
17452;DHT22;8843;48.838;9.324;2022-12-18T10:21:57;2.30;70.00
17452;DHT22;8843;48.838;9.324;2022-12-18T10:24:33;2.30;70.80
17452;DHT22;8843;48.838;9.324;2022-12-18T10:27:12;2.30;70.10
17452;DHT22;8843;48.838;9.324;2022-12-18T10:29:41;2.30;70.40
17452;DHT22;8843;48.838;9.324;2022-12-18T10:32:14;2.30;70.50
17452;DHT22;8843;48.838;9.324;2022-12-18T10:34:44;2.30;71.40
17452;DHT22;8843;48.838;9.324;2022-12-18T10:37:16;2.30;70.60
17452;DHT22;8843;48.838;9.324;2022-12-18T10:39:45;2.30;71.50
17452;DHT22;8843;48.838;9.324;2022-12-18T10:42:17;2.30;70.90
17452;DHT22;8843;48.838;9.324;2022-12-18T10:44:45;2.30;71.00
17452;DHT22;8843;48.838;9.324;2022-12-18T10:47:14;2.30;71.20
17452;DHT22;8843;48.838;9.324;2022-12-18T10:49:47;2.30;71.20
17452;DHT22;8843;48.838;9.324;2022-12-18T10:52:17;4.00;83.40
17452;DHT22;8843;48.838;9.324;2022-12-18T10:54:51;4.40;74.60
17452;DHT22;8843;48.838;9.324;2022-12-18T10:57:30;3.60;71.00
17452;DHT22;8843;48.838;9.324;2022-12-18T10:59:59;3.60;74.90
17452;DHT22;8843;48.838;9.324;2022-12-18T11:02:30;3.10;72.20
17452;DHT22;8843;48.838;9.324;2022-12-18T11:05:00;2.80;72.40
17452;DHT22;8843;48.838;9.324;2022-12-18T11:07:47;2.60;73.30
17452;DHT22;8843;48.838;9.324;2022-12-18T11:10:18;2.50;74.40
17452;DHT22;8843;48.838;9.324;2022-12-18T11:12:45;2.50;74.00
17452;DHT22;8843;48.838;9.324;2022-12-18T11:15:16;2.40;74.20
17452;DHT22;8843;48.838;9.324;2022-12-18T11:17:46;2.40;74.20
17452;DHT22;8843;48.838;9.324;2022-12-18T11:20:21;2.40;74.30
17452;DHT22;8843;48.838;9.324;2022-12-18T11:22:56;2.40;74.40
17452;DHT22;8843;48.838;9.324;2022-12-18T11:25:25;2.80;81.10
17452;DHT22;8843;48.838;9.324;2022-12-18T11:27:55;2.90;75.50
17452;DHT22;8843;48.838;9.324;2022-12-18T11:30:24;2.70;73.40
17452;DHT22;8843;48.838;9.324;2022-12-18T11:32:54;2.60;74.30
17452;DHT22;8843;48.838;9.324;2022-12-18T11:35:30;2.50;74.50
17452;DHT22;8843;48.838;9.324;2022-12-18T11:38:04;2.40;74.60
17452;DHT22;8843;48.838;9.324;2022-12-18T11:40:36;2.40;74.70
17452;DHT22;8843;48.838;9.324;2022-12-18T11:43:09;2.40;74.80
17452;DHT22;8843;48.838;9.324;2022-12-18T11:45:43;2.40;74.60
17452;DHT22;8843;48.838;9.324;2022-12-18T11:48:17;2.30;74.20
17452;DHT22;8843;48.838;9.324;2022-12-18T11:50:49;2.40;74.90
17452;DHT22;8843;48.838;9.324;2022-12-18T11:53:16;2.40;74.70
17452;DHT22;8843;48.838;9.324;2022-12-18T11:55:52;2.40;74.60
17452;DHT22;8843;48.838;9.324;2022-12-18T11:58:33;2.40;74.60
17452;DHT22;8843;48.838;9.324;2022-12-18T12:01:15;2.40;74.60
17452;DHT22;8843;48.838;9.324;2022-12-18T12:04:10;2.40;74.80
17452;DHT22;8843;48.838;9.324;2022-12-18T12:06:50;2.40;74.80
17452;DHT22;8843;48.838;9.324;2022-12-18T12:09:26;2.40;74.70
17452;DHT22;8843;48.838;9.324;2022-12-18T12:12:10;2.40;74.60
17452;DHT22;8843;48.838;9.324;2022-12-18T12:14:47;2.40;74.70
17452;DHT22;8843;48.838;9.324;2022-12-18T12:17:25;2.50;74.70
17452;DHT22;8843;48.838;9.324;2022-12-18T12:20:00;2.40;74.60
17452;DHT22;8843;48.838;9.324;2022-12-18T12:22:34;2.40;74.70
17452;DHT22;8843;48.838;9.324;2022-12-18T12:25:19;2.40;75.50
17452;DHT22;8843;48.838;9.324;2022-12-18T12:27:57;2.40;75.50
17452;DHT22;8843;48.838;9.324;2022-12-18T12:30:35;2.40;74.50
17452;DHT22;8843;48.838;9.324;2022-12-18T12:33:16;2.40;74.70
17452;DHT22;8843;48.838;9.324;2022-12-18T12:35:51;2.40;74.30
17452;DHT22;8843;48.838;9.324;2022-12-18T12:38:22;2.40;74.90
17452;DHT22;8843;48.838;9.324;2022-12-18T12:40:54;2.40;74.80
17452;DHT22;8843;48.838;9.324;2022-12-18T12:43:31;2.40;75.00
17452;DHT22;8843;48.838;9.324;2022-12-18T12:46:04;2.40;75.10
17452;DHT22;8843;48.838;9.324;2022-12-18T12:48:36;2.40;75.10
17452;DHT22;8843;48.838;9.324;2022-12-18T12:51:10;2.40;75.00
17452;DHT22;8843;48.838;9.324;2022-12-18T12:53:38;2.40;74.80
17452;DHT22;8843;48.838;9.324;2022-12-18T12:56:08;2.40;74.90
17452;DHT22;8843;48.838;9.324;2022-12-18T12:58:44;2.50;75.70
17452;DHT22;8843;48.838;9.324;2022-12-18T13:01:18;2.50;74.90
17452;DHT22;8843;48.838;9.324;2022-12-18T13:03:56;2.40;74.80
17452;DHT22;8843;48.838;9.324;2022-12-18T13:06:36;2.40;75.10
17452;DHT22;8843;48.838;9.324;2022-12-18T13:09:04;2.40;75.10
17452;DHT22;8843;48.838;9.324;2022-12-18T13:11:35;2.40;75.00
17452;DHT22;8843;48.838;9.324;2022-12-18T13:14:24;2.40;75.20
17452;DHT22;8843;48.838;9.324;2022-12-18T13:17:27;2.40;75.20
17452;DHT22;8843;48.838;9.324;2022-12-18T13:20:08;2.40;75.00
17452;DHT22;8843;48.838;9.324;2022-12-18T13:22:37;2.40;75.20
17452;DHT22;8843;48.838;9.324;2022-12-18T13:28:12;2.40;75.10
17452;DHT22;8843;48.838;9.324;2022-12-18T13:30:54;2.50;75.30
17452;DHT22;8843;48.838;9.324;2022-12-18T13:33:42;2.50;75.20
17452;DHT22;8843;48.838;9.324;2022-12-18T13:36:13;2.50;75.30
17452;DHT22;8843;48.838;9.324;2022-12-18T13:38:42;2.50;75.30
17452;DHT22;8843;48.838;9.324;2022-12-18T13:41:25;2.50;75.20
17452;DHT22;8843;48.838;9.324;2022-12-18T13:43:53;2.50;75.10
17452;DHT22;8843;48.838;9.324;2022-12-18T13:46:27;2.40;75.10
17452;DHT22;8843;48.838;9.324;2022-12-18T13:48:58;2.50;75.20
17452;DHT22;8843;48.838;9.324;2022-12-18T13:51:26;2.50;75.20
17452;DHT22;8843;48.838;9.324;2022-12-18T13:53:56;2.40;75.30
17452;DHT22;8843;48.838;9.324;2022-12-18T13:56:26;2.40;75.00
17452;DHT22;8843;48.838;9.324;2022-12-18T13:59:18;2.40;75.30
17452;DHT22;8843;48.838;9.324;2022-12-18T14:01:50;2.40;75.20
17452;DHT22;8843;48.838;9.324;2022-12-18T14:04:20;2.40;75.20
17452;DHT22;8843;48.838;9.324;2022-12-18T14:06:50;2.50;75.20
17452;DHT22;8843;48.838;9.324;2022-12-18T14:09:20;3.00;85.90
17452;DHT22;8843;48.838;9.324;2022-12-18T14:11:49;2.90;76.80
17452;DHT22;8843;48.838;9.324;2022-12-18T14:14:17;2.70;76.70
17452;DHT22;8843;48.838;9.324;2022-12-18T14:16:47;2.60;76.40
17452;DHT22;8843;48.838;9.324;2022-12-18T14:19:15;2.50;76.30
17452;DHT22;8843;48.838;9.324;2022-12-18T14:21:46;2.50;76.30
17452;DHT22;8843;48.838;9.324;2022-12-18T14:24:15;3.10;83.90
17452;DHT22;8843;48.838;9.324;2022-12-18T14:26:43;3.60;83.90
17452;DHT22;8843;48.838;9.324;2022-12-18T14:29:24;3.30;77.30
17452;DHT22;8843;48.838;9.324;2022-12-18T14:32:10;3.00;78.70
17452;DHT22;8843;48.838;9.324;2022-12-18T14:34:39;2.60;73.40
17452;DHT22;8843;48.838;9.324;2022-12-18T14:37:09;3.00;86.80
17452;DHT22;8843;48.838;9.324;2022-12-18T14:39:36;3.10;81.90
17452;DHT22;8843;48.838;9.324;2022-12-18T14:42:03;2.90;78.40
17452;DHT22;8843;48.838;9.324;2022-12-18T14:44:30;2.80;79.30
17452;DHT22;8843;48.838;9.324;2022-12-18T14:46:57;2.70;78.80
17452;DHT22;8843;48.838;9.324;2022-12-18T14:49:29;2.70;78.60
17452;DHT22;8843;48.838;9.324;2022-12-18T14:52:00;2.70;78.30
17452;DHT22;8843;48.838;9.324;2022-12-18T14:54:29;2.70;79.00
17452;DHT22;8843;48.838;9.324;2022-12-18T14:56:59;2.70;78.10
17452;DHT22;8843;48.838;9.324;2022-12-18T14:59:27;2.60;77.90
17452;DHT22;8843;48.838;9.324;2022-12-18T15:02:00;2.70;77.90
17452;DHT22;8843;48.838;9.324;2022-12-18T15:04:32;2.70;77.70
17452;DHT22;8843;48.838;9.324;2022-12-18T15:07:13;2.60;77.50
17452;DHT22;8843;48.838;9.324;2022-12-18T15:10:00;2.60;77.40
17452;DHT22;8843;48.838;9.324;2022-12-18T15:12:33;2.60;77.20
17452;DHT22;8843;48.838;9.324;2022-12-18T15:15:01;2.60;77.20
17452;DHT22;8843;48.838;9.324;2022-12-18T15:17:28;2.50;74.70
17452;DHT22;8843;48.838;9.324;2022-12-18T15:20:01;3.10;90.30
17452;DHT22;8843;48.838;9.324;2022-12-18T15:22:29;5.10;83.70
17452;DHT22;8843;48.838;9.324;2022-12-18T15:24:58;4.70;77.80
17452;DHT22;8843;48.838;9.324;2022-12-18T15:27:30;3.70;74.50
17452;DHT22;8843;48.838;9.324;2022-12-18T15:30:16;3.20;74.00
17452;DHT22;8843;48.838;9.324;2022-12-18T15:32:43;2.80;75.20
17452;DHT22;8843;48.838;9.324;2022-12-18T15:35:15;2.70;75.80
17452;DHT22;8843;48.838;9.324;2022-12-18T15:37:43;2.60;76.00
17452;DHT22;8843;48.838;9.324;2022-12-18T15:40:13;2.50;76.90
17452;DHT22;8843;48.838;9.324;2022-12-18T15:42:40;2.50;76.30
17452;DHT22;8843;48.838;9.324;2022-12-18T15:45:39;2.50;76.40
17452;DHT22;8843;48.838;9.324;2022-12-18T15:48:17;2.50;76.40
17452;DHT22;8843;48.838;9.324;2022-12-18T15:50:47;2.50;76.30
17452;DHT22;8843;48.838;9.324;2022-12-18T15:53:14;2.50;77.20
17452;DHT22;8843;48.838;9.324;2022-12-18T15:55:41;2.50;76.50
17452;DHT22;8843;48.838;9.324;2022-12-18T15:58:25;2.50;76.30
17452;DHT22;8843;48.838;9.324;2022-12-18T16:00:53;2.50;76.40
17452;DHT22;8843;48.838;9.324;2022-12-18T16:03:21;2.50;76.30
17452;DHT22;8843;48.838;9.324;2022-12-18T16:05:49;2.50;76.30
17452;DHT22;8843;48.838;9.324;2022-12-18T16:08:16;2.50;76.30
17452;DHT22;8843;48.838;9.324;2022-12-18T16:10:43;2.50;76.30
17452;DHT22;8843;48.838;9.324;2022-12-18T16:13:10;2.50;76.30
17452;DHT22;8843;48.838;9.324;2022-12-18T16:15:37;2.50;76.20
17452;DHT22;8843;48.838;9.324;2022-12-18T16:18:04;2.50;76.10
17452;DHT22;8843;48.838;9.324;2022-12-18T16:20:31;2.50;76.10
17452;DHT22;8843;48.838;9.324;2022-12-18T16:22:59;2.50;76.00
17452;DHT22;8843;48.838;9.324;2022-12-18T16:25:28;1.80;70.90
17452;DHT22;8843;48.838;9.324;2022-12-18T16:27:55;1.40;85.20
17452;DHT22;8843;48.838;9.324;2022-12-18T16:30:24;2.00;81.70